Time;durP1;ratioP1;P1;durP2;ratioP2;P2;SDS_P1;SDS_P2;PMS_P1;PMS_P2;Temp;Humidity;BMP_temperature;BMP_pressure;BME280_temperature;BME280_humidity;BME280_pressure;Samples;Min_cycle;Max_cycle;Signal;HPM_P1;HPM_P2
2021/09/03 00:01:21;;;;;;;7.57;5.00;;;21.50;99.90;;;;;;4932460;29;20441;-86
2021/09/03 00:03:46;;;;;;;6.78;4.57;;;21.50;99.90;;;;;;4931507;29;20050;-86
2021/09/03 00:06:12;;;;;;;5.15;4.65;;;21.60;99.90;;;;;;4932498;29;20052;-86
2021/09/03 00:08:38;;;;;;;5.78;4.75;;;21.60;99.90;;;;;;4931737;29;20027;-86
2021/09/03 00:11:04;;;;;;;6.22;4.85;;;21.60;99.90;;;;;;4932619;29;20015;-86
2021/09/03 00:13:30;;;;;;;5.95;4.50;;;21.60;99.90;;;;;;4947543;28;20082;-87
2021/09/03 00:15:56;;;;;;;5.63;4.28;;;21.60;99.90;;;;;;4932143;29;20024;-87
2021/09/03 00:18:22;;;;;;;5.82;4.88;;;21.60;99.90;;;;;;4932632;29;20469;-86
2021/09/03 00:20:48;;;;;;;5.95;4.97;;;21.60;99.90;;;;;;4932277;29;20032;-86
2021/09/03 00:23:14;;;;;;;7.97;4.88;;;21.60;99.90;;;;;;4931195;29;20016;-86
2021/09/03 00:25:39;;;;;;;5.82;4.32;;;21.60;99.90;;;;;;4932652;29;20074;-86
2021/09/03 00:28:05;;;;;;;5.85;4.63;;;21.60;99.90;;;;;;4932504;29;20024;-86
2021/09/03 00:30:31;;;;;;;8.35;5.03;;;21.70;99.90;;;;;;4932377;29;20031;-87
2021/09/03 00:32:57;;;;;;;8.70;4.85;;;21.60;99.90;;;;;;4949803;29;20027;-87
2021/09/03 00:35:22;;;;;;;6.13;4.80;;;21.60;99.90;;;;;;4951532;28;20039;-86
2021/09/03 00:37:48;;;;;;;6.63;4.47;;;21.60;99.90;;;;;;4952663;28;20504;-87
2021/09/03 00:40:14;;;;;;;5.68;4.57;;;21.60;99.90;;;;;;4955567;28;20015;-87
2021/09/03 00:42:40;;;;;;;7.50;4.82;;;21.60;99.90;;;;;;4940975;28;20035;-86
2021/09/03 00:45:06;;;;;;;7.55;4.57;;;21.60;99.90;;;;;;4931547;29;20481;-87
2021/09/03 00:47:32;;;;;;;5.18;4.65;;;21.50;99.90;;;;;;4927680;29;20028;-87
2021/09/03 00:49:58;;;;;;;5.90;4.53;;;21.60;99.90;;;;;;4953992;29;20023;-87
2021/09/03 00:52:25;;;;;;;9.60;4.90;;;21.50;99.90;;;;;;4955063;28;20015;-86
2021/09/03 00:54:53;;;;;;;7.07;5.40;;;21.50;99.90;;;;;;4954888;28;20075;-87
2021/09/03 00:57:19;;;;;;;6.72;5.00;;;21.50;99.90;;;;;;4955224;28;20480;-86
2021/09/03 00:59:45;;;;;;;6.38;4.70;;;21.50;99.90;;;;;;4955052;28;20030;-86
2021/09/03 01:02:10;;;;;;;5.40;4.78;;;21.50;99.90;;;;;;4954991;28;20546;-87
2021/09/03 01:04:36;;;;;;;6.03;4.80;;;21.40;99.90;;;;;;4954900;28;20107;-86
2021/09/03 01:07:02;;;;;;;6.60;4.60;;;21.40;99.90;;;;;;4953271;29;20023;-86
2021/09/03 01:09:27;;;;;;;6.00;4.78;;;21.30;99.90;;;;;;4953192;29;20028;-87
2021/09/03 01:11:53;;;;;;;5.20;4.70;;;21.20;99.90;;;;;;4969355;28;20023;-87
2021/09/03 01:14:19;;;;;;;6.97;4.72;;;21.20;99.90;;;;;;4954682;28;20079;-87
2021/09/03 01:16:44;;;;;;;6.38;5.05;;;21.10;99.90;;;;;;4939683;28;20035;-86
2021/09/03 01:19:10;;;;;;;7.35;5.20;;;21.10;99.90;;;;;;4935545;29;20224;-87
2021/09/03 01:21:36;;;;;;;5.82;5.07;;;21.00;99.90;;;;;;4935559;29;20035;-86
2021/09/03 01:24:02;;;;;;;6.78;5.43;;;20.90;99.90;;;;;;4953127;29;20015;-87
2021/09/03 01:26:28;;;;;;;6.13;5.32;;;20.80;99.90;;;;;;4954510;28;20027;-87
2021/09/03 01:28:54;;;;;;;10.27;5.35;;;20.70;99.90;;;;;;4953060;29;20042;-86
2021/09/03 01:31:19;;;;;;;6.75;5.43;;;20.70;99.90;;;;;;4954464;28;20392;-87
2021/09/03 01:33:47;;;;;;;10.70;5.82;;;20.60;99.90;;;;;;4953334;29;20037;-87
2021/09/03 01:36:13;;;;;;;7.78;5.82;;;20.60;99.90;;;;;;4954651;28;20034;-86
2021/09/03 01:38:39;;;;;;;8.63;5.60;;;20.50;99.90;;;;;;4969144;28;20071;-87
2021/09/03 01:41:05;;;;;;;8.70;5.22;;;20.50;99.90;;;;;;4953070;28;20028;-86
2021/09/03 01:43:30;;;;;;;8.32;5.32;;;20.50;99.90;;;;;;4954189;28;20114;-86
2021/09/03 01:45:56;;;;;;;8.32;5.38;;;20.40;99.90;;;;;;4953844;28;20034;-86
2021/09/03 01:48:22;;;;;;;6.45;5.53;;;20.30;99.90;;;;;;4954222;28;20027;-87
2021/09/03 01:50:47;;;;;;;6.68;5.50;;;20.30;99.90;;;;;;4954159;28;20084;-86
2021/09/03 01:53:13;;;;;;;5.85;4.95;;;20.30;99.90;;;;;;4954201;28;20023;-86
2021/09/03 01:55:39;;;;;;;7.60;5.68;;;20.30;99.90;;;;;;4954166;28;20178;-86
2021/09/03 01:58:04;;;;;;;7.85;5.57;;;20.20;99.90;;;;;;4954350;28;20035;-86
2021/09/03 02:00:30;;;;;;;5.78;5.15;;;20.20;99.90;;;;;;4953745;28;20031;-86
2021/09/03 02:02:56;;;;;;;6.53;5.45;;;20.10;99.90;;;;;;4953676;28;20573;-86
2021/09/03 02:05:21;;;;;;;6.13;5.25;;;20.10;99.90;;;;;;4953955;28;20522;-86
2021/09/03 02:07:47;;;;;;;7.53;4.88;;;20.10;99.90;;;;;;4952294;28;20057;-86
2021/09/03 02:10:13;;;;;;;6.30;5.70;;;20.00;99.90;;;;;;4952476;29;20503;-86
2021/09/03 02:12:39;;;;;;;8.02;5.70;;;20.00;99.90;;;;;;4953804;28;20552;-86
2021/09/03 02:15:05;;;;;;;6.43;5.70;;;20.00;99.90;;;;;;4952619;28;20461;-86
2021/09/03 02:17:31;;;;;;;9.48;5.68;;;19.90;99.90;;;;;;4933037;29;20034;-86
2021/09/03 02:19:57;;;;;;;6.47;5.72;;;19.90;99.90;;;;;;4929930;29;20126;-86
2021/09/03 02:22:22;;;;;;;9.10;6.00;;;19.90;99.90;;;;;;4937545;29;20071;-86
2021/09/03 02:24:48;;;;;;;7.88;6.00;;;19.90;99.90;;;;;;4953450;28;20028;-86
2021/09/03 02:27:14;;;;;;;7.70;5.88;;;19.90;99.90;;;;;;4951959;29;20122;-86
2021/09/03 02:29:40;;;;;;;10.35;6.80;;;19.90;99.90;;;;;;4953420;28;20103;-86
2021/09/03 02:32:05;;;;;;;9.25;6.15;;;19.90;99.90;;;;;;4968045;28;20031;-86
2021/09/03 02:34:31;;;;;;;10.95;6.40;;;19.80;99.90;;;;;;4968335;28;20026;-86
2021/09/03 02:36:57;;;;;;;8.38;6.40;;;19.80;99.90;;;;;;4953286;28;20038;-86
2021/09/03 02:39:22;;;;;;;8.77;7.07;;;19.80;99.90;;;;;;4953343;28;20051;-86
2021/09/03 02:41:48;;;;;;;7.40;6.63;;;19.80;99.90;;;;;;4951686;29;20043;-86
2021/09/03 02:44:14;;;;;;;9.60;7.03;;;19.80;99.90;;;;;;4952810;28;20472;-86
2021/09/03 02:46:39;;;;;;;8.30;6.55;;;19.70;99.90;;;;;;4933882;28;20032;-87
2021/09/03 02:49:05;;;;;;;9.32;7.10;;;19.70;99.90;;;;;;4933732;29;20032;-86
2021/09/03 02:51:31;;;;;;;9.15;6.80;;;19.70;99.90;;;;;;4933937;29;20163;-86
2021/09/03 02:53:56;;;;;;;11.00;7.22;;;19.70;99.90;;;;;;4933635;29;20507;-86
2021/09/03 02:56:22;;;;;;;10.15;6.97;;;19.80;99.90;;;;;;4933752;29;20499;-86
2021/09/03 02:58:48;;;;;;;8.70;7.38;;;19.80;99.90;;;;;;4933503;29;20028;-86
2021/09/03 03:01:13;;;;;;;8.25;6.80;;;19.90;99.90;;;;;;4933104;29;20052;-86
2021/09/03 03:03:39;;;;;;;9.50;6.80;;;19.90;99.90;;;;;;4933227;29;20087;-86
2021/09/03 03:06:05;;;;;;;9.70;6.68;;;20.00;99.90;;;;;;4933573;29;20046;-86
2021/09/03 03:08:30;;;;;;;7.30;6.60;;;20.10;99.90;;;;;;4933420;29;20078;-86
2021/09/03 03:10:56;;;;;;;9.43;6.95;;;20.10;99.90;;;;;;4934072;29;20095;-86
2021/09/03 03:13:25;;;;;;;11.23;6.25;;;20.10;99.90;;;;;;4933214;29;20052;-86
2021/09/03 03:15:51;;;;;;;8.40;6.55;;;20.20;99.90;;;;;;4933286;29;20015;-86
2021/09/03 03:18:17;;;;;;;7.80;6.00;;;20.20;99.90;;;;;;4931924;29;20042;-87
2021/09/03 03:20:45;;;;;;;11.68;6.70;;;20.20;99.90;;;;;;4933006;29;20517;-87
2021/09/03 03:23:10;;;;;;;7.80;6.15;;;20.30;99.90;;;;;;4933326;29;20035;-86
2021/09/03 03:25:36;;;;;;;9.20;6.30;;;20.30;99.90;;;;;;4933135;29;20035;-86
2021/09/03 03:28:02;;;;;;;10.68;6.53;;;20.40;99.90;;;;;;4933751;29;20070;-87
2021/09/03 03:30:28;;;;;;;10.77;6.88;;;20.40;99.90;;;;;;4932844;29;20444;-87
2021/09/03 03:32:54;;;;;;;8.13;7.05;;;20.40;99.90;;;;;;4931683;29;20027;-86
2021/09/03 03:35:19;;;;;;;7.68;6.55;;;20.40;99.90;;;;;;4933139;29;20035;-86
2021/09/03 03:37:45;;;;;;;8.05;6.70;;;20.40;99.90;;;;;;4932995;29;20028;-86
2021/09/03 03:40:11;;;;;;;6.47;5.78;;;20.30;99.90;;;;;;4933522;29;20040;-86
2021/09/03 03:42:37;;;;;;;7.70;6.68;;;20.30;99.90;;;;;;4932842;29;20099;-86
2021/09/03 03:45:03;;;;;;;8.57;6.25;;;20.30;99.90;;;;;;4932988;29;20441;-86
2021/09/03 03:47:29;;;;;;;10.43;6.53;;;20.20;99.90;;;;;;4932866;29;20055;-86
2021/09/03 03:49:55;;;;;;;8.02;6.47;;;20.20;99.90;;;;;;4933003;29;20028;-86
2021/09/03 03:52:20;;;;;;;9.15;7.20;;;20.10;99.90;;;;;;4947454;29;20024;-86
2021/09/03 03:54:46;;;;;;;9.18;6.93;;;20.10;99.90;;;;;;4931616;29;20023;-86
2021/09/03 03:57:12;;;;;;;10.65;6.97;;;20.10;99.90;;;;;;4932569;29;20287;-86
2021/09/03 03:59:37;;;;;;;8.85;6.78;;;20.10;99.90;;;;;;4932876;29;20038;-87
2021/09/03 04:02:03;;;;;;;7.30;6.35;;;20.10;99.90;;;;;;4947181;29;20044;-86
2021/09/03 04:04:29;;;;;;;9.82;7.28;;;20.10;99.90;;;;;;4932986;29;20095;-86
2021/09/03 04:06:55;;;;;;;7.57;6.80;;;20.00;99.90;;;;;;4947312;29;20648;-87
2021/09/03 04:09:21;;;;;;;8.40;7.00;;;19.90;99.90;;;;;;4932723;29;20020;-86
2021/09/03 04:11:47;;;;;;;12.30;7.28;;;19.90;99.90;;;;;;4932320;29;20476;-87
2021/09/03 04:14:15;;;;;;;9.55;7.60;;;19.90;99.90;;;;;;4936563;29;20023;-87
2021/09/03 04:16:41;;;;;;;9.50;7.60;;;19.80;99.90;;;;;;4936701;29;20193;-87
2021/09/03 04:19:06;;;;;;;11.10;7.40;;;19.80;99.90;;;;;;4936366;29;20172;-87
2021/09/03 04:21:32;;;;;;;8.98;7.80;;;19.80;99.90;;;;;;4936497;29;20043;-87
2021/09/03 04:23:58;;;;;;;10.75;7.80;;;19.80;99.90;;;;;;4936432;29;20043;-87
2021/09/03 04:26:23;;;;;;;10.50;7.65;;;19.70;99.90;;;;;;4935028;29;20028;-87
2021/09/03 04:28:49;;;;;;;12.95;8.23;;;19.70;99.90;;;;;;4934764;29;20035;-87
2021/09/03 04:31:15;;;;;;;10.10;9.00;;;19.60;99.90;;;;;;4936167;29;20103;-86
2021/09/03 04:33:40;;;;;;;11.50;9.57;;;19.60;99.90;;;;;;4936374;29;20020;-87
2021/09/03 04:36:06;;;;;;;10.63;9.10;;;19.50;99.90;;;;;;4936407;29;20051;-87
2021/09/03 04:38:32;;;;;;;12.85;9.40;;;19.50;99.90;;;;;;4950950;29;20047;-87
2021/09/03 04:40:58;;;;;;;10.90;9.13;;;19.50;99.90;;;;;;4936376;29;20064;-86
2021/09/03 04:43:24;;;;;;;11.02;9.57;;;19.40;99.90;;;;;;4950794;29;20032;-87
2021/09/03 04:45:50;;;;;;;10.70;9.15;;;19.40;99.90;;;;;;4935915;29;20032;-87
2021/09/03 04:48:16;;;;;;;15.18;9.93;;;19.30;99.90;;;;;;4935868;29;20026;-87
2021/09/03 04:50:42;;;;;;;14.45;10.30;;;19.30;99.90;;;;;;4935988;29;20102;-86
2021/09/03 04:53:08;;;;;;;9.85;8.75;;;19.30;99.90;;;;;;4935826;29;20522;-87
2021/09/03 04:55:34;;;;;;;13.57;9.68;;;19.30;99.90;;;;;;4935875;29;20027;-87
2021/09/03 04:57:59;;;;;;;12.05;8.90;;;19.30;99.90;;;;;;4935878;29;20107;-86
2021/09/03 05:00:25;;;;;;;12.43;9.18;;;19.30;99.90;;;;;;4935813;29;20034;-86
2021/09/03 05:02:51;;;;;;;11.90;8.90;;;19.30;99.90;;;;;;4935464;29;20056;-87
2021/09/03 05:05:17;;;;;;;10.25;8.55;;;19.20;99.90;;;;;;4935600;29;20451;-87
2021/09/03 05:07:43;;;;;;;10.32;8.88;;;19.20;99.90;;;;;;4934295;29;20031;-87
2021/09/03 05:10:09;;;;;;;10.40;8.57;;;19.20;99.90;;;;;;4935338;29;20119;-87
2021/09/03 05:12:36;;;;;;;10.88;8.82;;;19.10;99.90;;;;;;4935291;29;20067;-87
2021/09/03 05:15:14;;;;;;;14.80;8.68;;;19.10;99.90;;;;;;4935405;29;20027;-87
2021/09/03 05:17:48;;;;;;;11.15;8.70;;;19.00;99.90;;;;;;4935503;29;20473;-87
2021/09/03 05:20:14;;;;;;;10.10;9.02;;;19.00;99.90;;;;;;4934090;29;20071;-86
2021/09/03 05:22:40;;;;;;;10.60;8.75;;;19.00;99.90;;;;;;4935170;29;20400;-87
2021/09/03 05:25:08;;;;;;;12.60;8.82;;;19.00;99.90;;;;;;4934810;29;20038;-87
2021/09/03 05:27:34;;;;;;;12.00;9.30;;;18.90;99.90;;;;;;4950229;29;20035;-87
2021/09/03 05:30:00;;;;;;;10.65;8.73;;;18.90;99.90;;;;;;4935236;29;20392;-87
2021/09/03 05:32:26;;;;;;;11.77;9.38;;;18.90;99.90;;;;;;4935193;29;20031;-87
2021/09/03 05:34:51;;;;;;;11.63;8.25;;;18.80;99.90;;;;;;4935159;29;20038;-87
2021/09/03 05:37:17;;;;;;;10.07;8.25;;;18.80;99.90;;;;;;4935027;29;20024;-87
2021/09/03 05:39:43;;;;;;;12.50;8.80;;;18.80;99.90;;;;;;4933809;29;20036;-87
2021/09/03 05:42:10;;;;;;;9.52;8.27;;;18.80;99.90;;;;;;4934758;29;20091;-87
2021/09/03 05:44:36;;;;;;;9.82;8.60;;;18.90;99.90;;;;;;4935305;29;20024;-87
2021/09/03 05:47:02;;;;;;;11.55;8.65;;;18.90;99.90;;;;;;4935067;29;20038;-86
2021/09/03 05:49:27;;;;;;;10.77;8.68;;;18.90;99.90;;;;;;4933179;29;20036;-87
2021/09/03 05:51:53;;;;;;;11.60;8.38;;;18.90;99.90;;;;;;4935153;29;20030;-87
2021/09/03 05:54:19;;;;;;;10.95;8.20;;;18.90;99.90;;;;;;4934482;29;20472;-87
2021/09/03 05:56:44;;;;;;;10.02;8.32;;;18.90;99.90;;;;;;4933558;29;20471;-87
2021/09/03 05:59:10;;;;;;;14.63;8.32;;;18.90;99.90;;;;;;4946229;29;20397;-87
2021/09/03 06:01:36;;;;;;;11.30;8.43;;;18.90;99.90;;;;;;4934270;29;20036;-86
2021/09/03 06:04:01;;;;;;;9.30;7.65;;;19.00;99.90;;;;;;4934545;29;20086;-87
2021/09/03 06:06:27;;;;;;;9.23;7.57;;;19.00;99.90;;;;;;4934621;29;20027;-87
2021/09/03 06:08:52;;;;;;;10.63;7.95;;;19.10;99.90;;;;;;4934834;29;20480;-87
2021/09/03 06:11:21;;;;;;;9.45;8.25;;;19.10;99.90;;;;;;4934796;29;20392;-87
2021/09/03 06:13:48;;;;;;;9.70;7.57;;;19.20;99.90;;;;;;4932959;29;20015;-87
2021/09/03 06:16:14;;;;;;;11.32;7.68;;;19.20;99.90;;;;;;4946078;28;20397;-87
2021/09/03 06:18:39;;;;;;;11.05;6.95;;;19.30;99.90;;;;;;4931228;29;20024;-87
2021/09/03 06:21:05;;;;;;;8.82;6.32;;;19.30;99.90;;;;;;4934288;29;20043;-87
2021/09/03 06:23:31;;;;;;;10.77;6.38;;;19.30;99.90;;;;;;4934313;29;20036;-86
2021/09/03 06:25:56;;;;;;;7.05;6.35;;;19.30;99.90;;;;;;4934373;29;20042;-87
2021/09/03 06:28:22;;;;;;;10.25;5.88;;;19.20;99.90;;;;;;4934426;29;20036;-87
2021/09/03 06:30:48;;;;;;;8.27;6.35;;;19.30;99.90;;;;;;4932473;29;20016;-86
2021/09/03 06:33:15;;;;;;;6.07;5.45;;;19.30;99.90;;;;;;4934053;29;20149;-87
2021/09/03 06:35:40;;;;;;;6.55;5.55;;;19.40;99.90;;;;;;4934349;29;20227;-87
2021/09/03 06:38:06;;;;;;;7.38;5.63;;;19.50;99.90;;;;;;4933810;29;20228;-87
2021/09/03 06:40:32;;;;;;;7.88;5.07;;;19.50;99.90;;;;;;4934740;29;20036;-87
2021/09/03 06:42:58;;;;;;;6.90;5.30;;;19.60;99.90;;;;;;4934095;29;20083;-86
2021/09/03 06:45:24;;;;;;;8.18;5.22;;;19.60;99.90;;;;;;4934562;29;20083;-86
2021/09/03 06:47:49;;;;;;;7.00;4.65;;;19.70;99.90;;;;;;4934428;29;20035;-87
2021/09/03 06:50:16;;;;;;;6.32;4.45;;;19.70;99.90;;;;;;4935420;29;20106;-88
2021/09/03 06:52:42;;;;;;;7.57;4.70;;;19.80;99.90;;;;;;4934120;29;20487;-89
2021/09/03 06:55:09;;;;;;;9.98;4.72;;;19.80;99.90;;;;;;4935009;29;20642;-95
2021/09/03 06:57:34;;;;;;;9.00;5.13;;;19.80;99.90;;;;;;4933984;29;20043;-93
2021/09/03 07:00:00;;;;;;;9.48;5.28;;;19.90;99.90;;;;;;4934354;29;20028;-88
2021/09/03 07:02:26;;;;;;;8.30;4.70;;;20.00;99.90;;;;;;4933529;29;20516;-89
2021/09/03 07:04:52;;;;;;;6.15;4.53;;;20.00;99.90;;;;;;4933941;29;20031;-85
2021/09/03 07:07:17;;;;;;;7.70;4.57;;;20.00;99.90;;;;;;4935272;29;20028;-84
2021/09/03 07:09:43;;;;;;;7.13;4.53;;;20.00;99.90;;;;;;4934335;29;20039;-92
2021/09/03 07:12:09;;;;;;;8.50;4.63;;;20.10;99.90;;;;;;4927526;29;20024;-93
2021/09/03 07:14:34;;;;;;;8.90;4.88;;;20.10;99.90;;;;;;4932053;29;20028;-86
2021/09/03 07:17:00;;;;;;;8.80;4.70;;;20.10;99.90;;;;;;4931044;29;20078;-91
2021/09/03 07:19:26;;;;;;;7.90;4.60;;;20.20;99.90;;;;;;4933423;29;20066;-93
2021/09/03 07:21:53;;;;;;;7.97;4.82;;;20.20;99.90;;;;;;4934650;29;20059;-92
2021/09/03 07:24:18;;;;;;;8.18;4.60;;;20.30;99.90;;;;;;4933279;29;20472;-85
2021/09/03 07:26:44;;;;;;;8.80;4.55;;;20.30;99.90;;;;;;4935571;29;20085;-92
2021/09/03 07:29:10;;;;;;;7.28;4.78;;;20.40;99.90;;;;;;4932351;29;20016;-86
2021/09/03 07:31:36;;;;;;;11.40;4.40;;;20.50;99.90;;;;;;4935054;29;20459;-92
2021/09/03 07:34:01;;;;;;;5.68;4.05;;;20.50;99.90;;;;;;4953487;29;20028;-87
2021/09/03 07:36:27;;;;;;;6.88;4.35;;;20.60;99.90;;;;;;4944592;29;20015;-86
2021/09/03 07:38:53;;;;;;;9.52;4.18;;;20.70;99.90;;;;;;4944615;29;20019;-87
2021/09/03 07:41:21;;;;;;;10.45;4.22;;;20.80;99.90;;;;;;4959153;28;20374;-86
2021/09/03 07:43:47;;;;;;;6.72;4.15;;;20.90;99.90;;;;;;4938648;29;20058;-85
2021/09/03 07:46:13;;;;;;;9.18;4.10;;;20.80;99.90;;;;;;4943794;29;20043;-86
2021/09/03 07:48:38;;;;;;;5.28;4.03;;;20.90;99.90;;;;;;4943117;29;20307;-85
2021/09/03 07:51:04;;;;;;;4.68;4.03;;;20.90;99.90;;;;;;4943200;29;20023;-85
2021/09/03 07:53:30;;;;;;;7.72;3.90;;;21.00;99.90;;;;;;4947679;29;20027;-86
2021/09/03 07:55:56;;;;;;;8.05;4.13;;;21.00;99.90;;;;;;4951489;29;20035;-87
2021/09/03 07:58:22;;;;;;;5.38;3.83;;;21.10;99.90;;;;;;4955778;29;20319;-78
2021/09/03 08:00:48;;;;;;;8.13;4.18;;;21.20;99.90;;;;;;4955600;29;20126;-78
2021/09/03 08:03:13;;;;;;;8.23;4.10;;;21.10;99.90;;;;;;4943046;28;20080;-77
2021/09/03 08:05:39;;;;;;;10.30;4.72;;;21.00;99.90;;;;;;4933919;29;20023;-78
2021/09/03 08:08:08;;;;;;;7.45;4.38;;;20.90;99.90;;;;;;4932320;29;20070;-78
2021/09/03 08:10:37;;;;;;;9.30;4.85;;;21.00;99.90;;;;;;4932915;29;20214;-78
2021/09/03 08:13:05;;;;;;;6.60;3.90;;;21.00;99.90;;;;;;4932471;29;20024;-78
2021/09/03 08:15:32;;;;;;;5.57;4.05;;;21.00;99.90;;;;;;4933219;29;20030;-77
2021/09/03 08:17:58;;;;;;;7.55;4.38;;;21.10;99.90;;;;;;4932771;29;20020;-79
2021/09/03 08:20:25;;;;;;;8.73;4.53;;;21.10;99.90;;;;;;4932502;29;20409;-78
2021/09/03 08:22:51;;;;;;;9.38;4.22;;;21.00;99.90;;;;;;4931412;29;20489;-75
2021/09/03 08:25:19;;;;;;;8.63;3.92;;;21.10;99.90;;;;;;4932417;29;20056;-73
2021/09/03 08:27:46;;;;;;;7.78;4.38;;;21.10;99.90;;;;;;4932637;29;20034;-73
2021/09/03 08:30:12;;;;;;;11.68;5.60;;;21.20;99.90;;;;;;4932264;29;20020;-73
2021/09/03 08:32:38;;;;;;;11.45;5.28;;;21.30;99.90;;;;;;4932881;29;20095;-73
2021/09/03 08:35:04;;;;;;;14.65;5.00;;;21.40;99.90;;;;;;4932644;29;20508;-73
2021/09/03 08:37:29;;;;;;;6.57;4.50;;;21.40;99.90;;;;;;4932598;29;20416;-77
2021/09/03 08:39:55;;;;;;;7.00;4.65;;;21.50;99.90;;;;;;4932345;29;20127;-77
2021/09/03 08:42:21;;;;;;;10.55;5.05;;;21.40;99.90;;;;;;4932248;29;20031;-76
2021/09/03 08:44:50;;;;;;;15.88;5.70;;;21.60;99.90;;;;;;4932594;29;20071;-77
2021/09/03 08:47:17;;;;;;;8.32;4.57;;;21.60;99.90;;;;;;4932080;29;20075;-76
2021/09/03 08:49:43;;;;;;;8.18;4.22;;;21.50;99.90;;;;;;4932676;29;20024;-75
2021/09/03 08:52:09;;;;;;;10.23;4.45;;;21.70;99.90;;;;;;4932488;29;20048;-75
2021/09/03 08:54:36;;;;;;;7.00;4.57;;;21.80;99.90;;;;;;4932402;29;20034;-77
2021/09/03 08:57:03;;;;;;;8.15;4.82;;;21.80;99.90;;;;;;4932291;29;20028;-77
2021/09/03 08:59:29;;;;;;;9.60;4.43;;;21.90;99.90;;;;;;4917277;29;20028;-76
2021/09/03 09:02:12;;;;;;;7.70;4.05;;;21.90;99.90;;;;;;4935387;29;20050;-77
2021/09/03 09:04:40;;;;;;;8.75;4.38;;;22.00;99.90;;;;;;4936196;29;20095;-77
2021/09/03 09:07:06;;;;;;;8.07;3.95;;;22.10;99.90;;;;;;4935793;29;20038;-77
2021/09/03 09:09:38;;;;;;;6.03;4.35;;;22.20;99.90;;;;;;4935876;29;20138;-77
2021/09/03 09:12:12;;;;;;;6.40;4.03;;;22.20;99.90;;;;;;4935960;29;20118;-77
2021/09/03 09:14:57;;;;;;;6.97;3.83;;;22.20;99.90;;;;;;4935953;29;20054;-76
2021/09/03 09:17:35;;;;;;;5.95;3.92;;;22.20;99.90;;;;;;4935574;29;20031;-76
2021/09/03 09:20:03;;;;;;;7.35;4.53;;;22.20;99.90;;;;;;4935333;29;20380;-76
2021/09/03 09:22:48;;;;;;;6.07;4.05;;;22.30;99.90;;;;;;4935616;29;20035;-76
2021/09/03 09:25:20;;;;;;;6.20;3.78;;;22.30;99.90;;;;;;4935645;29;20027;-76
2021/09/03 09:27:47;;;;;;;5.85;4.40;;;22.40;99.90;;;;;;4936191;29;20202;-76
2021/09/03 09:30:27;;;;;;;5.00;4.38;;;22.50;99.90;;;;;;4935247;29;20012;-77
2021/09/03 09:33:18;;;;;;;6.47;3.88;;;22.50;99.90;;;;;;4935568;29;20030;-77
2021/09/03 09:35:49;;;;;;;4.57;4.05;;;22.60;99.90;;;;;;4935367;29;20046;-76
2021/09/03 09:38:20;;;;;;;5.90;4.05;;;22.60;99.90;;;;;;4942850;29;20031;-76
2021/09/03 09:40:50;;;;;;;7.50;4.38;;;22.50;99.90;;;;;;4954360;28;20030;-77
2021/09/03 09:43:37;;;;;;;5.45;4.70;;;22.50;99.90;;;;;;4954214;28;20046;-75
2021/09/03 09:46:18;;;;;;;6.07;4.10;;;22.50;99.90;;;;;;4954090;28;20019;-75
2021/09/03 09:48:50;;;;;;;14.75;5.07;;;22.60;99.90;;;;;;4954402;28;20055;-75
2021/09/03 09:51:30;;;;;;;7.05;4.47;;;22.60;99.90;;;;;;4954401;28;20078;-76
2021/09/03 09:54:09;;;;;;;5.78;4.18;;;22.80;99.90;;;;;;4954153;28;20031;-76
2021/09/03 09:56:38;;;;;;;4.65;3.67;;;22.80;99.90;;;;;;4954177;28;20031;-76
2021/09/03 09:59:06;;;;;;;6.32;3.63;;;22.80;99.90;;;;;;4953635;28;20395;-77
2021/09/03 10:01:33;;;;;;;6.97;4.15;;;22.90;99.90;;;;;;4934873;29;20046;-77
2021/09/03 10:04:06;;;;;;;8.07;4.13;;;22.90;99.90;;;;;;4934838;29;20023;-76
2021/09/03 10:06:33;;;;;;;8.93;4.45;;;23.00;99.90;;;;;;4934840;29;20055;-76
2021/09/03 10:08:59;;;;;;;8.38;4.25;;;23.10;99.90;;;;;;4934840;29;20063;-77
2021/09/03 10:11:26;;;;;;;10.15;4.60;;;23.30;99.90;;;;;;4934968;29;20058;-77
2021/09/03 10:13:53;;;;;;;9.00;4.30;;;23.40;99.90;;;;;;4953811;28;20106;-76
2021/09/03 10:16:20;;;;;;;6.82;4.50;;;23.40;99.90;;;;;;4953475;28;20050;-76
2021/09/03 10:18:49;;;;;;;7.90;4.40;;;23.20;99.90;;;;;;4953914;28;20098;-76
2021/09/03 10:21:15;;;;;;;8.40;4.65;;;23.00;99.90;;;;;;4953616;28;20054;-76
2021/09/03 10:23:55;;;;;;;5.40;4.50;;;23.20;99.90;;;;;;4953736;28;20023;-76
2021/09/03 10:26:31;;;;;;;6.78;4.75;;;23.30;99.90;;;;;;4953679;28;20025;-76
2021/09/03 10:29:22;;;;;;;10.52;5.10;;;23.40;99.90;;;;;;4940544;29;20023;-76
2021/09/03 10:32:10;;;;;;;5.35;4.38;;;23.50;99.90;;;;;;4953106;28;20058;-76
2021/09/03 10:34:47;;;;;;;10.48;4.82;;;23.40;99.90;;;;;;4953857;28;20066;-77
2021/09/03 10:37:16;;;;;;;6.90;4.60;;;23.40;99.90;;;;;;4953433;28;20015;-77
2021/09/03 10:39:57;;;;;;;6.97;4.70;;;23.30;99.90;;;;;;4940941;28;20036;-82
2021/09/03 10:42:35;;;;;;;6.45;5.18;;;23.40;99.90;;;;;;4933897;29;20027;-79
2021/09/03 10:45:14;;;;;;;5.57;4.28;;;23.40;99.90;;;;;;4933716;29;20028;-79
2021/09/03 10:47:42;;;;;;;5.65;4.78;;;23.50;99.90;;;;;;4934665;29;20024;-78
2021/09/03 10:50:10;;;;;;;7.38;5.28;;;23.50;99.90;;;;;;4933654;29;20047;-77
2021/09/03 10:52:36;;;;;;;7.68;4.75;;;23.40;99.90;;;;;;4934074;29;20023;-77
2021/09/03 10:55:02;;;;;;;8.77;5.38;;;23.40;99.90;;;;;;4933150;29;20098;-80
2021/09/03 10:57:27;;;;;;;6.70;4.38;;;23.60;99.90;;;;;;4933892;29;20484;-79
2021/09/03 11:00:23;;;;;;;11.02;5.38;;;23.70;99.90;;;;;;4941587;29;20034;-77
2021/09/03 11:02:49;;;;;;;6.53;4.68;;;23.70;99.90;;;;;;4923304;29;20071;-78
2021/09/03 11:05:15;;;;;;;5.50;4.95;;;23.80;99.90;;;;;;4933301;29;20450;-79
2021/09/03 11:07:42;;;;;;;6.07;5.07;;;23.80;99.90;;;;;;4933025;29;20031;-79
2021/09/03 11:10:16;;;;;;;9.30;5.38;;;24.10;99.90;;;;;;4933740;29;20024;-77
2021/09/03 11:12:52;;;;;;;5.72;4.80;;;24.00;99.90;;;;;;4933582;29;20031;-77
2021/09/03 11:15:18;;;;;;;8.20;5.75;;;24.20;99.90;;;;;;4933592;29;20024;-78
2021/09/03 11:17:45;;;;;;;9.10;5.10;;;24.10;99.90;;;;;;4932350;29;20028;-78
2021/09/03 11:20:13;;;;;;;8.57;5.78;;;24.10;99.90;;;;;;4933624;29;20055;-78
2021/09/03 11:22:38;;;;;;;7.32;5.80;;;24.00;99.90;;;;;;4935820;28;20032;-78
2021/09/03 11:25:07;;;;;;;5.85;5.10;;;24.10;99.90;;;;;;4933426;29;20020;-78
2021/09/03 11:27:34;;;;;;;6.50;5.28;;;24.00;99.90;;;;;;4933418;29;20027;-78
2021/09/03 11:30:14;;;;;;;7.82;5.68;;;24.10;99.90;;;;;;4933110;29;20055;-78
2021/09/03 11:32:40;;;;;;;6.00;5.00;;;24.10;99.90;;;;;;4941396;29;20478;-78
2021/09/03 11:35:08;;;;;;;7.43;4.68;;;24.20;99.90;;;;;;4938872;28;20507;-77
2021/09/03 11:37:42;;;;;;;6.88;5.38;;;24.50;99.90;;;;;;4933531;29;20030;-78
2021/09/03 11:40:30;;;;;;;5.63;5.05;;;24.50;99.90;;;;;;4946580;29;20039;-78
2021/09/03 11:43:02;;;;;;;8.30;5.50;;;24.40;99.90;;;;;;4941438;29;20049;-78
2021/09/03 11:45:39;;;;;;;9.00;5.43;;;24.30;99.90;;;;;;4966551;28;20031;-78
2021/09/03 11:48:07;;;;;;;6.25;5.25;;;24.30;99.90;;;;;;4952270;28;20023;-78
2021/09/03 11:50:33;;;;;;;9.13;5.35;;;24.30;99.90;;;;;;4935209;28;20075;-78
2021/09/03 11:53:01;;;;;;;7.05;5.35;;;24.30;99.90;;;;;;4933004;29;20448;-78
2021/09/03 11:55:41;;;;;;;5.82;4.70;;;24.40;99.90;;;;;;4933162;29;20082;-78
2021/09/03 11:58:09;;;;;;;5.00;4.50;;;24.60;99.90;;;;;;4932209;29;20020;-78
2021/09/03 12:00:40;;;;;;;7.78;4.28;;;24.70;99.90;;;;;;4936342;29;20476;-78
2021/09/03 12:03:11;;;;;;;4.15;3.50;;;24.80;99.90;;;;;;4932533;29;20047;-78
2021/09/03 12:05:40;;;;;;;6.43;3.97;;;24.90;99.90;;;;;;4932847;29;20015;-78
2021/09/03 12:08:05;;;;;;;6.07;4.15;;;24.80;99.90;;;;;;4933061;29;20028;-78
2021/09/03 12:10:53;;;;;;;4.90;4.40;;;25.00;99.90;;;;;;4933084;29;20154;-78
2021/09/03 12:13:21;;;;;;;4.10;3.60;;;24.90;99.90;;;;;;4932949;29;20024;-78
2021/09/03 12:15:58;;;;;;;5.40;4.40;;;24.90;99.90;;;;;;4931581;29;20032;-78
2021/09/03 12:18:34;;;;;;;4.50;3.67;;;25.00;99.90;;;;;;4933110;29;20376;-78
2021/09/03 12:20:59;;;;;;;5.55;4.03;;;25.00;99.90;;;;;;4932462;29;20031;-79
2021/09/03 12:23:30;;;;;;;6.28;4.65;;;25.00;99.90;;;;;;4932791;29;20047;-78
2021/09/03 12:26:16;;;;;;;5.20;3.70;;;25.00;99.90;;;;;;4934707;29;20028;-76
2021/09/03 12:28:43;;;;;;;8.07;4.10;;;25.00;99.90;;;;;;4933819;29;20020;-76
2021/09/03 12:31:13;;;;;;;6.15;4.40;;;25.10;99.90;;;;;;4944829;28;20024;-76
2021/09/03 12:34:02;;;;;;;6.35;4.80;;;25.30;99.90;;;;;;4934017;29;20028;-76
2021/09/03 12:36:30;;;;;;;10.05;4.80;;;25.80;99.90;;;;;;4936071;29;20423;-76
2021/09/03 12:39:21;;;;;;;9.93;4.75;;;25.90;99.90;;;;;;4936957;29;20023;-76
2021/09/03 12:41:47;;;;;;;7.00;4.78;;;25.90;99.90;;;;;;4935865;29;20524;-76
2021/09/03 12:44:27;;;;;;;7.43;5.45;;;26.00;99.90;;;;;;4935593;29;20110;-76
2021/09/03 12:46:58;;;;;;;6.70;5.50;;;26.00;99.90;;;;;;4938390;29;20432;-76
2021/09/03 12:49:28;;;;;;;8.02;6.25;;;26.20;99.90;;;;;;4935782;29;20035;-76